sensor_id;sensor_type;location;lat;lon;timestamp;P1;durP1;ratioP1;P2;durP2;ratioP2
57659;SDS011;43485;45.680;15.702;2024-01-30T00:02:13;6.97;;;2.97;;
57659;SDS011;43485;45.680;15.702;2024-01-30T00:07:06;3.22;;;2.13;;
57659;SDS011;43485;45.680;15.702;2024-01-30T00:09:32;1.98;;;1.02;;
57659;SDS011;43485;45.680;15.702;2024-01-30T00:14:24;5.88;;;2.75;;
57659;SDS011;43485;45.680;15.702;2024-01-30T00:16:50;5.22;;;2.83;;
57659;SDS011;43485;45.680;15.702;2024-01-30T00:21:43;2.33;;;1.23;;
57659;SDS011;43485;45.680;15.702;2024-01-30T00:24:09;3.72;;;2.22;;
57659;SDS011;43485;45.680;15.702;2024-01-30T00:29:02;4.45;;;1.70;;
57659;SDS011;43485;45.680;15.702;2024-01-30T00:31:28;5.40;;;2.03;;
57659;SDS011;43485;45.680;15.702;2024-01-30T00:33:54;8.90;;;6.32;;
57659;SDS011;43485;45.680;15.702;2024-01-30T00:36:21;23.40;;;5.78;;
57659;SDS011;43485;45.680;15.702;2024-01-30T00:41:13;2.85;;;2.00;;
57659;SDS011;43485;45.680;15.702;2024-01-30T00:43:39;9.50;;;3.38;;
57659;SDS011;43485;45.680;15.702;2024-01-30T00:46:05;6.55;;;3.83;;
57659;SDS011;43485;45.680;15.702;2024-01-30T00:48:31;4.93;;;2.53;;
57659;SDS011;43485;45.680;15.702;2024-01-30T00:50:57;7.70;;;4.53;;
57659;SDS011;43485;45.680;15.702;2024-01-30T00:53:23;3.30;;;2.35;;
57659;SDS011;43485;45.680;15.702;2024-01-30T00:55:49;4.70;;;2.83;;
57659;SDS011;43485;45.680;15.702;2024-01-30T00:58:16;9.15;;;2.88;;
57659;SDS011;43485;45.680;15.702;2024-01-30T01:00:44;5.05;;;2.90;;
57659;SDS011;43485;45.680;15.702;2024-01-30T01:05:36;2.92;;;1.85;;
57659;SDS011;43485;45.680;15.702;2024-01-30T01:08:02;7.15;;;2.83;;
57659;SDS011;43485;45.680;15.702;2024-01-30T01:10:28;9.82;;;3.15;;
57659;SDS011;43485;45.680;15.702;2024-01-30T01:12:54;4.38;;;2.22;;
57659;SDS011;43485;45.680;15.702;2024-01-30T01:15:21;4.90;;;2.70;;
57659;SDS011;43485;45.680;15.702;2024-01-30T01:17:47;3.90;;;1.95;;
57659;SDS011;43485;45.680;15.702;2024-01-30T01:20:13;10.32;;;2.70;;
57659;SDS011;43485;45.680;15.702;2024-01-30T01:22:39;4.35;;;2.63;;
57659;SDS011;43485;45.680;15.702;2024-01-30T01:25:05;7.13;;;2.35;;
57659;SDS011;43485;45.680;15.702;2024-01-30T01:27:33;6.30;;;3.40;;
57659;SDS011;43485;45.680;15.702;2024-01-30T01:29:59;5.05;;;2.15;;
57659;SDS011;43485;45.680;15.702;2024-01-30T01:32:26;8.95;;;3.30;;
57659;SDS011;43485;45.680;15.702;2024-01-30T01:34:52;4.13;;;1.75;;
57659;SDS011;43485;45.680;15.702;2024-01-30T01:37:19;3.92;;;2.67;;
57659;SDS011;43485;45.680;15.702;2024-01-30T01:39:47;3.92;;;2.40;;
57659;SDS011;43485;45.680;15.702;2024-01-30T01:42:13;3.00;;;1.73;;
57659;SDS011;43485;45.680;15.702;2024-01-30T01:44:39;1.92;;;1.55;;
57659;SDS011;43485;45.680;15.702;2024-01-30T01:47:05;9.70;;;2.72;;
57659;SDS011;43485;45.680;15.702;2024-01-30T01:51:57;1.80;;;1.00;;
57659;SDS011;43485;45.680;15.702;2024-01-30T01:54:25;13.55;;;4.35;;
57659;SDS011;43485;45.680;15.702;2024-01-30T01:56:52;4.20;;;2.92;;
57659;SDS011;43485;45.680;15.702;2024-01-30T01:59:20;2.55;;;1.77;;
57659;SDS011;43485;45.680;15.702;2024-01-30T02:01:47;3.83;;;1.85;;
57659;SDS011;43485;45.680;15.702;2024-01-30T02:04:32;3.25;;;1.15;;
57659;SDS011;43485;45.680;15.702;2024-01-30T02:06:58;6.53;;;3.90;;
57659;SDS011;43485;45.680;15.702;2024-01-30T02:11:50;2.95;;;1.95;;
57659;SDS011;43485;45.680;15.702;2024-01-30T02:14:16;4.38;;;2.40;;
57659;SDS011;43485;45.680;15.702;2024-01-30T02:16:42;1.50;;;1.15;;
57659;SDS011;43485;45.680;15.702;2024-01-30T02:19:08;4.25;;;2.05;;
57659;SDS011;43485;45.680;15.702;2024-01-30T02:21:34;1.95;;;1.15;;
57659;SDS011;43485;45.680;15.702;2024-01-30T02:24:01;3.97;;;1.92;;
57659;SDS011;43485;45.680;15.702;2024-01-30T02:26:28;3.40;;;1.75;;
57659;SDS011;43485;45.680;15.702;2024-01-30T02:28:54;6.40;;;2.72;;
57659;SDS011;43485;45.680;15.702;2024-01-30T02:31:20;4.78;;;2.70;;
57659;SDS011;43485;45.680;15.702;2024-01-30T02:33:46;4.63;;;2.25;;
57659;SDS011;43485;45.680;15.702;2024-01-30T02:36:12;4.80;;;3.38;;
57659;SDS011;43485;45.680;15.702;2024-01-30T02:38:40;4.07;;;2.47;;
57659;SDS011;43485;45.680;15.702;2024-01-30T02:41:06;10.07;;;2.85;;
57659;SDS011;43485;45.680;15.702;2024-01-30T02:43:32;3.38;;;1.98;;
57659;SDS011;43485;45.680;15.702;2024-01-30T02:45:58;3.90;;;2.28;;
57659;SDS011;43485;45.680;15.702;2024-01-30T02:48:25;2.63;;;1.05;;
57659;SDS011;43485;45.680;15.702;2024-01-30T02:50:52;4.97;;;1.98;;
57659;SDS011;43485;45.680;15.702;2024-01-30T02:53:18;4.80;;;1.85;;
57659;SDS011;43485;45.680;15.702;2024-01-30T02:55:44;6.30;;;2.60;;
57659;SDS011;43485;45.680;15.702;2024-01-30T02:58:10;7.30;;;2.05;;
57659;SDS011;43485;45.680;15.702;2024-01-30T03:00:36;3.60;;;1.80;;
57659;SDS011;43485;45.680;15.702;2024-01-30T03:03:02;2.30;;;1.95;;
57659;SDS011;43485;45.680;15.702;2024-01-30T03:05:28;4.63;;;1.77;;
57659;SDS011;43485;45.680;15.702;2024-01-30T03:10:20;3.63;;;2.63;;
57659;SDS011;43485;45.680;15.702;2024-01-30T03:12:47;4.25;;;3.15;;
57659;SDS011;43485;45.680;15.702;2024-01-30T03:15:13;5.45;;;3.13;;
57659;SDS011;43485;45.680;15.702;2024-01-30T03:17:39;9.10;;;2.08;;
57659;SDS011;43485;45.680;15.702;2024-01-30T03:20:05;1.58;;;1.20;;
57659;SDS011;43485;45.680;15.702;2024-01-30T03:22:32;3.00;;;1.20;;
57659;SDS011;43485;45.680;15.702;2024-01-30T03:24:58;3.20;;;2.13;;
57659;SDS011;43485;45.680;15.702;2024-01-30T03:27:24;2.25;;;1.15;;
57659;SDS011;43485;45.680;15.702;2024-01-30T03:29:50;8.95;;;2.70;;
57659;SDS011;43485;45.680;15.702;2024-01-30T03:32:17;8.95;;;3.67;;
57659;SDS011;43485;45.680;15.702;2024-01-30T03:34:43;5.90;;;3.08;;
57659;SDS011;43485;45.680;15.702;2024-01-30T03:37:09;3.42;;;2.30;;
57659;SDS011;43485;45.680;15.702;2024-01-30T03:39:35;3.13;;;2.03;;
57659;SDS011;43485;45.680;15.702;2024-01-30T03:42:01;4.30;;;1.30;;
57659;SDS011;43485;45.680;15.702;2024-01-30T03:44:28;5.70;;;2.60;;
57659;SDS011;43485;45.680;15.702;2024-01-30T03:46:54;3.75;;;2.00;;
57659;SDS011;43485;45.680;15.702;2024-01-30T03:49:20;5.47;;;1.70;;
57659;SDS011;43485;45.680;15.702;2024-01-30T03:51:46;3.55;;;2.00;;
57659;SDS011;43485;45.680;15.702;2024-01-30T03:54:12;1.90;;;1.65;;
57659;SDS011;43485;45.680;15.702;2024-01-30T03:56:39;3.17;;;1.27;;
57659;SDS011;43485;45.680;15.702;2024-01-30T03:59:05;2.67;;;1.45;;
57659;SDS011;43485;45.680;15.702;2024-01-30T04:01:31;7.63;;;3.63;;
57659;SDS011;43485;45.680;15.702;2024-01-30T04:03:57;2.42;;;1.23;;
57659;SDS011;43485;45.680;15.702;2024-01-30T04:06:23;2.75;;;1.08;;
57659;SDS011;43485;45.680;15.702;2024-01-30T04:08:49;1.08;;;0.65;;
57659;SDS011;43485;45.680;15.702;2024-01-30T04:11:15;1.48;;;0.95;;
57659;SDS011;43485;45.680;15.702;2024-01-30T04:13:47;3.40;;;1.35;;
57659;SDS011;43485;45.680;15.702;2024-01-30T04:18:58;2.78;;;1.73;;
57659;SDS011;43485;45.680;15.702;2024-01-30T04:21:24;5.22;;;2.90;;
57659;SDS011;43485;45.680;15.702;2024-01-30T04:23:50;2.05;;;1.20;;
57659;SDS011;43485;45.680;15.702;2024-01-30T04:26:17;4.38;;;2.30;;
57659;SDS011;43485;45.680;15.702;2024-01-30T04:31:10;3.08;;;2.10;;
57659;SDS011;43485;45.680;15.702;2024-01-30T04:33:36;3.58;;;1.65;;
57659;SDS011;43485;45.680;15.702;2024-01-30T04:36:03;8.93;;;3.30;;
57659;SDS011;43485;45.680;15.702;2024-01-30T04:38:30;3.95;;;2.55;;
57659;SDS011;43485;45.680;15.702;2024-01-30T04:40:56;11.50;;;3.85;;
57659;SDS011;43485;45.680;15.702;2024-01-30T04:43:23;3.03;;;2.58;;
57659;SDS011;43485;45.680;15.702;2024-01-30T04:45:49;4.78;;;1.58;;
57659;SDS011;43485;45.680;15.702;2024-01-30T04:48:15;4.88;;;2.03;;
57659;SDS011;43485;45.680;15.702;2024-01-30T04:50:41;6.65;;;1.95;;
57659;SDS011;43485;45.680;15.702;2024-01-30T04:53:07;4.25;;;1.20;;
57659;SDS011;43485;45.680;15.702;2024-01-30T04:55:34;2.13;;;1.88;;
57659;SDS011;43485;45.680;15.702;2024-01-30T04:58:01;2.00;;;1.35;;
57659;SDS011;43485;45.680;15.702;2024-01-30T05:00:27;4.38;;;1.30;;
57659;SDS011;43485;45.680;15.702;2024-01-30T05:05:38;4.70;;;1.88;;
57659;SDS011;43485;45.680;15.702;2024-01-30T05:08:04;3.33;;;2.15;;
57659;SDS011;43485;45.680;15.702;2024-01-30T05:10:31;8.15;;;2.85;;
57659;SDS011;43485;45.680;15.702;2024-01-30T05:12:57;7.25;;;3.40;;
57659;SDS011;43485;45.680;15.702;2024-01-30T05:15:23;6.65;;;1.85;;
57659;SDS011;43485;45.680;15.702;2024-01-30T05:17:49;7.22;;;3.85;;
57659;SDS011;43485;45.680;15.702;2024-01-30T05:20:16;5.82;;;3.47;;
57659;SDS011;43485;45.680;15.702;2024-01-30T05:22:42;11.23;;;6.47;;
57659;SDS011;43485;45.680;15.702;2024-01-30T05:25:10;44.08;;;7.28;;
57659;SDS011;43485;45.680;15.702;2024-01-30T05:27:37;11.30;;;5.68;;
57659;SDS011;43485;45.680;15.702;2024-01-30T05:30:05;7.90;;;5.30;;
57659;SDS011;43485;45.680;15.702;2024-01-30T05:32:32;12.35;;;6.32;;
57659;SDS011;43485;45.680;15.702;2024-01-30T05:37:24;8.60;;;5.25;;
57659;SDS011;43485;45.680;15.702;2024-01-30T05:39:50;10.50;;;3.53;;
57659;SDS011;43485;45.680;15.702;2024-01-30T05:42:16;14.25;;;5.72;;
57659;SDS011;43485;45.680;15.702;2024-01-30T05:44:43;17.23;;;6.63;;
57659;SDS011;43485;45.680;15.702;2024-01-30T05:47:09;6.43;;;4.30;;
57659;SDS011;43485;45.680;15.702;2024-01-30T05:49:35;8.60;;;4.05;;
57659;SDS011;43485;45.680;15.702;2024-01-30T05:52:02;19.33;;;5.25;;
57659;SDS011;43485;45.680;15.702;2024-01-30T05:54:29;7.40;;;4.15;;
57659;SDS011;43485;45.680;15.702;2024-01-30T05:56:55;12.88;;;8.57;;
57659;SDS011;43485;45.680;15.702;2024-01-30T05:59:21;8.52;;;5.32;;
57659;SDS011;43485;45.680;15.702;2024-01-30T06:01:47;11.05;;;3.78;;
57659;SDS011;43485;45.680;15.702;2024-01-30T06:04:14;11.95;;;5.95;;
57659;SDS011;43485;45.680;15.702;2024-01-30T06:09:06;5.95;;;3.20;;
57659;SDS011;43485;45.680;15.702;2024-01-30T06:11:51;8.10;;;5.13;;
57659;SDS011;43485;45.680;15.702;2024-01-30T06:14:17;14.18;;;5.50;;
57659;SDS011;43485;45.680;15.702;2024-01-30T06:16:43;11.15;;;6.68;;
57659;SDS011;43485;45.680;15.702;2024-01-30T06:19:09;11.55;;;5.00;;
57659;SDS011;43485;45.680;15.702;2024-01-30T06:21:35;19.88;;;6.20;;
57659;SDS011;43485;45.680;15.702;2024-01-30T06:26:28;8.98;;;4.00;;
57659;SDS011;43485;45.680;15.702;2024-01-30T06:28:54;12.85;;;4.68;;
57659;SDS011;43485;45.680;15.702;2024-01-30T06:31:20;6.88;;;3.92;;
57659;SDS011;43485;45.680;15.702;2024-01-30T06:36:12;5.67;;;4.47;;
57659;SDS011;43485;45.680;15.702;2024-01-30T06:41:05;10.97;;;5.27;;
57659;SDS011;43485;45.680;15.702;2024-01-30T06:43:31;6.15;;;3.60;;
57659;SDS011;43485;45.680;15.702;2024-01-30T06:45:58;7.50;;;3.22;;
57659;SDS011;43485;45.680;15.702;2024-01-30T06:48:24;3.85;;;3.45;;
57659;SDS011;43485;45.680;15.702;2024-01-30T06:50:53;3.22;;;1.88;;
57659;SDS011;43485;45.680;15.702;2024-01-30T06:53:19;7.22;;;3.70;;
57659;SDS011;43485;45.680;15.702;2024-01-30T06:55:45;6.45;;;3.70;;
57659;SDS011;43485;45.680;15.702;2024-01-30T06:58:12;7.60;;;4.18;;
57659;SDS011;43485;45.680;15.702;2024-01-30T07:00:38;5.93;;;3.40;;
57659;SDS011;43485;45.680;15.702;2024-01-30T07:03:04;3.42;;;2.63;;
57659;SDS011;43485;45.680;15.702;2024-01-30T07:05:31;3.42;;;2.63;;
57659;SDS011;43485;45.680;15.702;2024-01-30T07:07:58;3.67;;;2.78;;
57659;SDS011;43485;45.680;15.702;2024-01-30T07:10:24;5.38;;;2.35;;
57659;SDS011;43485;45.680;15.702;2024-01-30T07:12:50;5.75;;;3.00;;
57659;SDS011;43485;45.680;15.702;2024-01-30T07:15:16;5.72;;;3.40;;
57659;SDS011;43485;45.680;15.702;2024-01-30T07:17:44;4.90;;;2.80;;
57659;SDS011;43485;45.680;15.702;2024-01-30T07:20:11;4.18;;;3.67;;
57659;SDS011;43485;45.680;15.702;2024-01-30T07:25:03;16.88;;;7.72;;
57659;SDS011;43485;45.680;15.702;2024-01-30T07:27:29;7.82;;;5.18;;
57659;SDS011;43485;45.680;15.702;2024-01-30T07:29:55;8.48;;;5.05;;
57659;SDS011;43485;45.680;15.702;2024-01-30T07:32:22;19.33;;;11.88;;
57659;SDS011;43485;45.680;15.702;2024-01-30T07:34:48;11.38;;;5.35;;
57659;SDS011;43485;45.680;15.702;2024-01-30T07:37:15;8.05;;;5.38;;
57659;SDS011;43485;45.680;15.702;2024-01-30T07:39:41;9.55;;;6.00;;
57659;SDS011;43485;45.680;15.702;2024-01-30T07:42:07;11.65;;;8.20;;
57659;SDS011;43485;45.680;15.702;2024-01-30T07:47:00;28.13;;;12.40;;
57659;SDS011;43485;45.680;15.702;2024-01-30T07:49:26;17.08;;;11.07;;
57659;SDS011;43485;45.680;15.702;2024-01-30T07:54:18;14.50;;;7.72;;
57659;SDS011;43485;45.680;15.702;2024-01-30T07:56:44;11.02;;;9.68;;
57659;SDS011;43485;45.680;15.702;2024-01-30T07:59:10;28.23;;;17.77;;
57659;SDS011;43485;45.680;15.702;2024-01-30T08:01:37;24.52;;;13.82;;
57659;SDS011;43485;45.680;15.702;2024-01-30T08:04:03;20.85;;;14.57;;
57659;SDS011;43485;45.680;15.702;2024-01-30T08:08:55;20.75;;;9.55;;
57659;SDS011;43485;45.680;15.702;2024-01-30T08:11:23;16.00;;;9.55;;
57659;SDS011;43485;45.680;15.702;2024-01-30T08:13:51;22.25;;;9.55;;
57659;SDS011;43485;45.680;15.702;2024-01-30T08:16:18;14.55;;;10.57;;
57659;SDS011;43485;45.680;15.702;2024-01-30T08:21:10;15.80;;;8.25;;
57659;SDS011;43485;45.680;15.702;2024-01-30T08:23:37;11.75;;;7.22;;
57659;SDS011;43485;45.680;15.702;2024-01-30T08:26:05;10.88;;;6.65;;
57659;SDS011;43485;45.680;15.702;2024-01-30T08:28:31;20.02;;;8.35;;
57659;SDS011;43485;45.680;15.702;2024-01-30T08:30:57;10.77;;;6.65;;
57659;SDS011;43485;45.680;15.702;2024-01-30T08:33:23;8.20;;;4.28;;
57659;SDS011;43485;45.680;15.702;2024-01-30T08:35:49;9.00;;;5.93;;
57659;SDS011;43485;45.680;15.702;2024-01-30T08:38:15;8.50;;;4.80;;
57659;SDS011;43485;45.680;15.702;2024-01-30T08:40:41;9.75;;;5.47;;
57659;SDS011;43485;45.680;15.702;2024-01-30T08:43:07;15.13;;;8.15;;
57659;SDS011;43485;45.680;15.702;2024-01-30T08:45:35;6.60;;;4.68;;
57659;SDS011;43485;45.680;15.702;2024-01-30T08:48:01;7.15;;;5.20;;
57659;SDS011;43485;45.680;15.702;2024-01-30T08:50:27;8.13;;;5.93;;
57659;SDS011;43485;45.680;15.702;2024-01-30T08:52:53;15.07;;;4.95;;
57659;SDS011;43485;45.680;15.702;2024-01-30T08:55:19;7.85;;;5.03;;
57659;SDS011;43485;45.680;15.702;2024-01-30T08:57:45;10.65;;;6.30;;
57659;SDS011;43485;45.680;15.702;2024-01-30T09:00:11;6.95;;;5.55;;
57659;SDS011;43485;45.680;15.702;2024-01-30T09:02:38;7.85;;;6.85;;
57659;SDS011;43485;45.680;15.702;2024-01-30T09:05:04;6.20;;;4.05;;
57659;SDS011;43485;45.680;15.702;2024-01-30T09:07:30;11.43;;;6.45;;
57659;SDS011;43485;45.680;15.702;2024-01-30T09:09:56;10.95;;;6.40;;
57659;SDS011;43485;45.680;15.702;2024-01-30T09:12:22;6.65;;;3.50;;
57659;SDS011;43485;45.680;15.702;2024-01-30T09:14:49;8.63;;;5.85;;
57659;SDS011;43485;45.680;15.702;2024-01-30T09:17:15;12.65;;;7.93;;
57659;SDS011;43485;45.680;15.702;2024-01-30T09:19:41;9.63;;;6.53;;
57659;SDS011;43485;45.680;15.702;2024-01-30T09:22:07;9.68;;;4.30;;
57659;SDS011;43485;45.680;15.702;2024-01-30T09:24:33;9.52;;;5.28;;
57659;SDS011;43485;45.680;15.702;2024-01-30T09:29:25;12.18;;;6.90;;
57659;SDS011;43485;45.680;15.702;2024-01-30T09:31:51;12.20;;;5.95;;
57659;SDS011;43485;45.680;15.702;2024-01-30T09:34:17;6.68;;;3.90;;
57659;SDS011;43485;45.680;15.702;2024-01-30T09:36:44;5.22;;;3.35;;
57659;SDS011;43485;45.680;15.702;2024-01-30T09:39:09;4.95;;;4.22;;
57659;SDS011;43485;45.680;15.702;2024-01-30T09:41:38;5.32;;;2.40;;
57659;SDS011;43485;45.680;15.702;2024-01-30T09:44:19;4.75;;;2.53;;
57659;SDS011;43485;45.680;15.702;2024-01-30T09:46:46;7.78;;;5.18;;
57659;SDS011;43485;45.680;15.702;2024-01-30T09:49:13;7.00;;;2.08;;
57659;SDS011;43485;45.680;15.702;2024-01-30T09:51:39;6.32;;;4.03;;
57659;SDS011;43485;45.680;15.702;2024-01-30T09:54:07;7.00;;;4.03;;
57659;SDS011;43485;45.680;15.702;2024-01-30T09:56:35;2.75;;;2.03;;
57659;SDS011;43485;45.680;15.702;2024-01-30T09:59:01;7.57;;;3.58;;
57659;SDS011;43485;45.680;15.702;2024-01-30T10:01:27;6.90;;;4.03;;
57659;SDS011;43485;45.680;15.702;2024-01-30T10:03:53;5.43;;;3.22;;
57659;SDS011;43485;45.680;15.702;2024-01-30T10:06:20;7.20;;;4.65;;
57659;SDS011;43485;45.680;15.702;2024-01-30T10:08:49;4.88;;;2.42;;
57659;SDS011;43485;45.680;15.702;2024-01-30T10:11:15;5.03;;;3.25;;
57659;SDS011;43485;45.680;15.702;2024-01-30T10:13:41;6.63;;;4.53;;
57659;SDS011;43485;45.680;15.702;2024-01-30T10:16:07;4.70;;;2.30;;
57659;SDS011;43485;45.680;15.702;2024-01-30T10:18:33;5.75;;;2.95;;
57659;SDS011;43485;45.680;15.702;2024-01-30T10:20:59;10.13;;;4.57;;
57659;SDS011;43485;45.680;15.702;2024-01-30T10:23:26;7.32;;;3.45;;
57659;SDS011;43485;45.680;15.702;2024-01-30T10:25:52;4.10;;;2.85;;
57659;SDS011;43485;45.680;15.702;2024-01-30T10:28:18;2.65;;;1.90;;
57659;SDS011;43485;45.680;15.702;2024-01-30T10:30:45;3.58;;;2.88;;
57659;SDS011;43485;45.680;15.702;2024-01-30T10:33:11;4.38;;;2.38;;
57659;SDS011;43485;45.680;15.702;2024-01-30T10:38:03;5.10;;;3.58;;
57659;SDS011;43485;45.680;15.702;2024-01-30T10:40:32;5.18;;;2.83;;
57659;SDS011;43485;45.680;15.702;2024-01-30T10:43:01;2.67;;;2.47;;
57659;SDS011;43485;45.680;15.702;2024-01-30T10:45:29;2.35;;;1.63;;
57659;SDS011;43485;45.680;15.702;2024-01-30T10:47:56;2.67;;;1.70;;
57659;SDS011;43485;45.680;15.702;2024-01-30T10:50:25;4.50;;;3.67;;
57659;SDS011;43485;45.680;15.702;2024-01-30T10:52:53;2.55;;;2.35;;
57659;SDS011;43485;45.680;15.702;2024-01-30T10:55:21;4.68;;;2.67;;
57659;SDS011;43485;45.680;15.702;2024-01-30T10:57:49;4.15;;;2.67;;
57659;SDS011;43485;45.680;15.702;2024-01-30T11:00:15;2.55;;;1.40;;
57659;SDS011;43485;45.680;15.702;2024-01-30T11:02:43;3.30;;;2.22;;
57659;SDS011;43485;45.680;15.702;2024-01-30T11:05:11;6.65;;;3.50;;
57659;SDS011;43485;45.680;15.702;2024-01-30T11:07:38;6.65;;;3.17;;
57659;SDS011;43485;45.680;15.702;2024-01-30T11:10:06;6.03;;;3.55;;
57659;SDS011;43485;45.680;15.702;2024-01-30T11:12:37;3.10;;;2.28;;
57659;SDS011;43485;45.680;15.702;2024-01-30T11:15:23;2.28;;;0.98;;
57659;SDS011;43485;45.680;15.702;2024-01-30T11:17:52;3.80;;;3.30;;
57659;SDS011;43485;45.680;15.702;2024-01-30T11:20:20;3.10;;;1.75;;
57659;SDS011;43485;45.680;15.702;2024-01-30T11:22:49;3.75;;;2.58;;
57659;SDS011;43485;45.680;15.702;2024-01-30T11:25:19;3.22;;;1.75;;
57659;SDS011;43485;45.680;15.702;2024-01-30T11:27:49;4.32;;;2.10;;
57659;SDS011;43485;45.680;15.702;2024-01-30T11:33:04;3.75;;;1.67;;
57659;SDS011;43485;45.680;15.702;2024-01-30T11:35:34;3.53;;;2.20;;
57659;SDS011;43485;45.680;15.702;2024-01-30T11:38:22;2.45;;;1.27;;
57659;SDS011;43485;45.680;15.702;2024-01-30T11:40:51;4.00;;;1.65;;
57659;SDS011;43485;45.680;15.702;2024-01-30T11:43:19;5.55;;;3.13;;
57659;SDS011;43485;45.680;15.702;2024-01-30T11:45:45;2.75;;;1.50;;
57659;SDS011;43485;45.680;15.702;2024-01-30T11:48:12;4.32;;;1.20;;
57659;SDS011;43485;45.680;15.702;2024-01-30T11:50:38;2.05;;;1.58;;
57659;SDS011;43485;45.680;15.702;2024-01-30T11:53:05;2.22;;;1.83;;
57659;SDS011;43485;45.680;15.702;2024-01-30T11:55:32;2.45;;;1.27;;
57659;SDS011;43485;45.680;15.702;2024-01-30T11:58:01;3.05;;;1.65;;
57659;SDS011;43485;45.680;15.702;2024-01-30T12:00:27;3.17;;;2.65;;
57659;SDS011;43485;45.680;15.702;2024-01-30T12:02:55;1.17;;;0.88;;
57659;SDS011;43485;45.680;15.702;2024-01-30T12:08:13;2.85;;;1.52;;
57659;SDS011;43485;45.680;15.702;2024-01-30T12:10:41;1.58;;;1.02;;
57659;SDS011;43485;45.680;15.702;2024-01-30T12:13:07;4.22;;;2.25;;
57659;SDS011;43485;45.680;15.702;2024-01-30T12:15:33;6.82;;;2.03;;
57659;SDS011;43485;45.680;15.702;2024-01-30T12:20:45;4.10;;;2.42;;
57659;SDS011;43485;45.680;15.702;2024-01-30T12:23:21;3.97;;;2.45;;
57659;SDS011;43485;45.680;15.702;2024-01-30T12:25:50;2.55;;;1.33;;
57659;SDS011;43485;45.680;15.702;2024-01-30T12:28:17;2.20;;;1.23;;
57659;SDS011;43485;45.680;15.702;2024-01-30T12:30:44;3.15;;;1.63;;
57659;SDS011;43485;45.680;15.702;2024-01-30T12:33:15;3.15;;;1.50;;
57659;SDS011;43485;45.680;15.702;2024-01-30T12:35:46;6.18;;;2.17;;
57659;SDS011;43485;45.680;15.702;2024-01-30T12:38:13;8.48;;;3.45;;
57659;SDS011;43485;45.680;15.702;2024-01-30T12:40:40;6.47;;;2.00;;
57659;SDS011;43485;45.680;15.702;2024-01-30T12:43:06;4.53;;;2.97;;
57659;SDS011;43485;45.680;15.702;2024-01-30T12:45:33;3.05;;;2.10;;
57659;SDS011;43485;45.680;15.702;2024-01-30T12:47:59;5.95;;;2.28;;
57659;SDS011;43485;45.680;15.702;2024-01-30T12:50:25;3.25;;;2.22;;
57659;SDS011;43485;45.680;15.702;2024-01-30T12:52:51;3.88;;;1.20;;
57659;SDS011;43485;45.680;15.702;2024-01-30T12:55:18;3.30;;;2.80;;
57659;SDS011;43485;45.680;15.702;2024-01-30T12:57:45;1.33;;;0.90;;
57659;SDS011;43485;45.680;15.702;2024-01-30T13:02:37;4.07;;;1.83;;
57659;SDS011;43485;45.680;15.702;2024-01-30T13:05:03;1.23;;;0.98;;
57659;SDS011;43485;45.680;15.702;2024-01-30T13:07:30;5.97;;;2.97;;
57659;SDS011;43485;45.680;15.702;2024-01-30T13:12:41;1.85;;;1.20;;
57659;SDS011;43485;45.680;15.702;2024-01-30T13:15:07;4.10;;;1.38;;
57659;SDS011;43485;45.680;15.702;2024-01-30T13:17:34;6.15;;;1.40;;
57659;SDS011;43485;45.680;15.702;2024-01-30T13:20:01;2.75;;;1.98;;
57659;SDS011;43485;45.680;15.702;2024-01-30T13:22:28;3.47;;;1.85;;
57659;SDS011;43485;45.680;15.702;2024-01-30T13:24:54;1.88;;;1.17;;
57659;SDS011;43485;45.680;15.702;2024-01-30T13:27:20;3.65;;;2.42;;
57659;SDS011;43485;45.680;15.702;2024-01-30T13:29:47;2.30;;;1.65;;
57659;SDS011;43485;45.680;15.702;2024-01-30T13:32:13;1.63;;;1.15;;
57659;SDS011;43485;45.680;15.702;2024-01-30T13:34:39;3.00;;;1.42;;
57659;SDS011;43485;45.680;15.702;2024-01-30T13:37:06;4.40;;;1.88;;
57659;SDS011;43485;45.680;15.702;2024-01-30T13:39:32;4.00;;;2.22;;
57659;SDS011;43485;45.680;15.702;2024-01-30T13:44:24;2.13;;;1.75;;
57659;SDS011;43485;45.680;15.702;2024-01-30T13:46:50;2.97;;;2.33;;
57659;SDS011;43485;45.680;15.702;2024-01-30T13:49:16;3.20;;;2.00;;
57659;SDS011;43485;45.680;15.702;2024-01-30T13:51:42;1.90;;;1.08;;
57659;SDS011;43485;45.680;15.702;2024-01-30T13:54:08;1.20;;;0.77;;
57659;SDS011;43485;45.680;15.702;2024-01-30T13:56:34;2.20;;;1.50;;
57659;SDS011;43485;45.680;15.702;2024-01-30T13:59:00;1.55;;;1.17;;
57659;SDS011;43485;45.680;15.702;2024-01-30T14:01:30;5.03;;;2.85;;
57659;SDS011;43485;45.680;15.702;2024-01-30T14:03:57;1.73;;;1.27;;
57659;SDS011;43485;45.680;15.702;2024-01-30T14:06:23;2.83;;;0.93;;
57659;SDS011;43485;45.680;15.702;2024-01-30T14:11:15;4.68;;;2.88;;
57659;SDS011;43485;45.680;15.702;2024-01-30T14:16:07;0.68;;;0.60;;
57659;SDS011;43485;45.680;15.702;2024-01-30T14:20:59;2.20;;;1.45;;
57659;SDS011;43485;45.680;15.702;2024-01-30T14:25:51;3.38;;;0.90;;
57659;SDS011;43485;45.680;15.702;2024-01-30T14:28:17;2.70;;;1.52;;
57659;SDS011;43485;45.680;15.702;2024-01-30T14:33:09;3.38;;;1.13;;
57659;SDS011;43485;45.680;15.702;2024-01-30T14:35:35;3.45;;;1.80;;
57659;SDS011;43485;45.680;15.702;2024-01-30T14:38:01;3.58;;;1.88;;
57659;SDS011;43485;45.680;15.702;2024-01-30T14:40:30;1.58;;;0.98;;
57659;SDS011;43485;45.680;15.702;2024-01-30T14:42:56;2.60;;;1.88;;
57659;SDS011;43485;45.680;15.702;2024-01-30T14:45:22;2.30;;;1.35;;
57659;SDS011;43485;45.680;15.702;2024-01-30T14:47:48;2.42;;;1.90;;
57659;SDS011;43485;45.680;15.702;2024-01-30T14:50:15;3.35;;;2.08;;
57659;SDS011;43485;45.680;15.702;2024-01-30T14:52:42;1.38;;;0.82;;
57659;SDS011;43485;45.680;15.702;2024-01-30T14:57:34;1.75;;;1.25;;
57659;SDS011;43485;45.680;15.702;2024-01-30T15:00:00;1.83;;;1.38;;
57659;SDS011;43485;45.680;15.702;2024-01-30T15:02:27;2.03;;;0.65;;
57659;SDS011;43485;45.680;15.702;2024-01-30T15:04:53;1.08;;;0.88;;
57659;SDS011;43485;45.680;15.702;2024-01-30T15:07:19;3.40;;;1.27;;
57659;SDS011;43485;45.680;15.702;2024-01-30T15:09:45;1.45;;;1.00;;
57659;SDS011;43485;45.680;15.702;2024-01-30T15:12:11;2.40;;;0.90;;
57659;SDS011;43485;45.680;15.702;2024-01-30T15:14:37;7.47;;;3.13;;
57659;SDS011;43485;45.680;15.702;2024-01-30T15:19:29;4.03;;;2.50;;
57659;SDS011;43485;45.680;15.702;2024-01-30T15:21:55;3.13;;;2.17;;
57659;SDS011;43485;45.680;15.702;2024-01-30T15:24:21;3.58;;;1.83;;
57659;SDS011;43485;45.680;15.702;2024-01-30T15:26:49;1.08;;;0.65;;
57659;SDS011;43485;45.680;15.702;2024-01-30T15:29:17;1.95;;;1.10;;
57659;SDS011;43485;45.680;15.702;2024-01-30T15:31:46;0.98;;;0.75;;
57659;SDS011;43485;45.680;15.702;2024-01-30T15:34:12;2.72;;;1.33;;
57659;SDS011;43485;45.680;15.702;2024-01-30T15:36:38;4.43;;;2.42;;
57659;SDS011;43485;45.680;15.702;2024-01-30T15:39:05;1.45;;;1.00;;
57659;SDS011;43485;45.680;15.702;2024-01-30T15:41:31;1.08;;;0.73;;
57659;SDS011;43485;45.680;15.702;2024-01-30T15:43:57;1.83;;;0.80;;
57659;SDS011;43485;45.680;15.702;2024-01-30T15:46:23;2.10;;;0.82;;
57659;SDS011;43485;45.680;15.702;2024-01-30T15:48:49;3.22;;;1.27;;
57659;SDS011;43485;45.680;15.702;2024-01-30T15:51:15;1.77;;;0.85;;
57659;SDS011;43485;45.680;15.702;2024-01-30T15:53:42;1.10;;;0.98;;
57659;SDS011;43485;45.680;15.702;2024-01-30T15:56:08;1.45;;;1.08;;
57659;SDS011;43485;45.680;15.702;2024-01-30T15:58:34;2.80;;;1.73;;
57659;SDS011;43485;45.680;15.702;2024-01-30T16:01:00;2.05;;;1.38;;
57659;SDS011;43485;45.680;15.702;2024-01-30T16:03:27;1.67;;;0.95;;